South Twigg, Illinois
Current Conditions -  °F | °C
As of 8:55 AM on Monday 24 Nov 2014 (Local Time) from KHSB Reporting Station
Overcast Overcast  
Wind Chill: 36°   Ceiling: 3500
Heat Index: 43°   Visibility: 10mi
Dew Point: 36°   Wind: 15mph
Humidity: 77%   Direction: 250°WSW
Pressure: 29.66"   Gusts: 24mph
Location:  37.962°N, 88.4577°W
Report Text: KHSB 241455Z AUTO 25013G21KT 10SM OVC035 06/02 A2966 RMK AO2 T00610024
Loading
Personal Weather Stations






























Interactive Weather Map New forecast layout! Learn more

10-Day Weather Forecast

Advertisements
Track Severe Weather on mobile